createdAt,value
2022-12-16T00:01:47.727Z,97334.75
2022-12-16T00:04:50.332Z,97333.31
2022-12-16T00:07:55.370Z,97338.38
2022-12-16T00:10:59.882Z,97331.59
2022-12-16T00:14:02.899Z,97326.47
2022-12-16T00:17:05.458Z,97338.03
2022-12-16T00:20:09.916Z,97334.97
2022-12-16T00:23:14.256Z,97339.09
2022-12-16T00:26:16.878Z,97339.06
2022-12-16T00:29:19.482Z,97330.47
2022-12-16T00:32:22.086Z,97338.28
2022-12-16T00:35:24.663Z,97336.03
2022-12-16T00:38:28.658Z,97333.84
2022-12-16T00:41:31.282Z,97331.50
2022-12-16T00:44:33.923Z,97339.19
2022-12-16T00:47:39.703Z,97342.47
2022-12-16T00:50:47.085Z,97344.63
2022-12-16T00:53:51.004Z,97338.66
2022-12-16T00:56:53.435Z,97339.19
2022-12-16T00:59:56.618Z,97342.31
2022-12-16T01:02:59.433Z,97346.69
2022-12-16T01:06:02.164Z,97365.13
2022-12-16T01:09:06.257Z,97365.00
2022-12-16T01:12:08.949Z,97359.00
2022-12-16T01:15:14.650Z,97360.16
2022-12-16T01:18:17.540Z,97378.66
2022-12-16T01:21:20.122Z,97377.00
2022-12-16T01:24:24.147Z,97376.75
2022-12-16T01:27:26.996Z,97381.00
2022-12-16T01:30:29.827Z,97382.88
2022-12-16T01:33:34.047Z,97386.06
2022-12-16T01:36:37.113Z,97381.66
2022-12-16T01:39:41.049Z,97380.69
2022-12-16T01:42:44.557Z,97385.44
2022-12-16T01:45:47.235Z,97386.72
2022-12-16T01:48:52.508Z,97396.03
2022-12-16T01:51:58.930Z,97405.59
2022-12-16T01:55:08.117Z,97398.66
2022-12-16T01:58:13.795Z,97405.75
2022-12-16T02:01:17.783Z,97412.06
2022-12-16T02:04:20.535Z,97409.13
2022-12-16T02:07:23.118Z,97407.50
2022-12-16T02:10:34.224Z,97416.06
2022-12-16T02:13:45.144Z,97411.19
2022-12-16T02:16:53.143Z,97425.47
2022-12-16T02:20:13.356Z,97423.81
2022-12-16T02:23:36.100Z,97417.03
2022-12-16T02:27:21.007Z,97419.16
2022-12-16T02:30:42.026Z,97427.19
2022-12-16T02:33:56.514Z,97422.34
2022-12-16T02:37:07.580Z,97410.03
2022-12-16T02:40:17.748Z,97418.53
2022-12-16T02:43:28.081Z,97419.63
2022-12-16T02:46:33.157Z,97425.19
2022-12-16T02:49:49.585Z,97421.13
2022-12-16T02:52:54.277Z,97427.06
2022-12-16T02:56:01.352Z,97435.50
2022-12-16T02:59:11.881Z,97440.31
2022-12-16T03:02:20.286Z,97443.81
2022-12-16T03:05:27.294Z,97452.47
2022-12-16T03:08:33.989Z,97447.63
2022-12-16T03:11:37.704Z,97446.13
2022-12-16T03:14:43.551Z,97452.13
2022-12-16T03:17:47.706Z,97451.88
2022-12-16T03:20:56.493Z,97447.63
2022-12-16T03:24:01.528Z,97455.72
2022-12-16T03:27:09.966Z,97457.81
2022-12-16T03:30:14.692Z,97455.63
2022-12-16T03:33:21.499Z,97456.66
2022-12-16T03:36:26.452Z,97469.50
2022-12-16T03:39:30.166Z,97470.03
2022-12-16T03:42:32.871Z,97471.91
2022-12-16T03:45:38.801Z,97475.94
2022-12-16T03:48:47.557Z,97477.56
2022-12-16T03:51:51.701Z,97484.16
2022-12-16T03:54:55.208Z,97481.78
2022-12-16T03:57:58.152Z,97485.56
2022-12-16T04:01:00.748Z,97491.25
2022-12-16T04:04:03.380Z,97489.09
2022-12-16T04:07:22.503Z,97496.63
2022-12-16T04:10:39.035Z,97500.91
2022-12-16T04:13:58.985Z,97493.75
2022-12-16T04:17:19.355Z,97501.97
2022-12-16T04:20:46.895Z,97505.84
2022-12-16T04:24:11.254Z,97512.19
2022-12-16T04:27:25.762Z,97513.28
2022-12-16T04:30:29.362Z,97520.53
2022-12-16T04:33:49.691Z,97526.88
2022-12-16T04:37:10.061Z,97521.25
2022-12-16T04:40:31.814Z,97531.75
2022-12-16T04:43:52.117Z,97536.16
2022-12-16T04:47:12.660Z,97534.47
2022-12-16T04:50:33.197Z,97542.00
2022-12-16T04:53:53.413Z,97546.25
2022-12-16T04:57:14.760Z,97544.38
2022-12-16T05:00:34.949Z,97546.28
2022-12-16T05:03:54.487Z,97550.75
2022-12-16T05:07:14.947Z,97555.09
2022-12-16T05:10:35.341Z,97553.44
2022-12-16T05:13:57.594Z,97554.59
2022-12-16T05:17:17.955Z,97560.44
2022-12-16T05:20:38.322Z,97562.31
2022-12-16T05:23:58.522Z,97574.06
2022-12-16T05:27:19.315Z,97576.22
2022-12-16T05:30:40.672Z,97570.91
2022-12-16T05:34:01.069Z,97576.81
2022-12-16T05:37:21.446Z,97583.25
2022-12-16T05:40:41.682Z,97585.16
2022-12-16T05:44:02.013Z,97591.31
2022-12-16T05:47:23.378Z,97598.75
2022-12-16T05:50:43.814Z,97603.03
2022-12-16T05:54:04.307Z,97614.00
2022-12-16T05:57:24.915Z,97610.00
2022-12-16T06:00:45.016Z,97614.78
2022-12-16T06:04:06.593Z,97621.75
2022-12-16T06:07:26.912Z,97624.72
2022-12-16T06:10:47.034Z,97633.53
2022-12-16T06:14:07.633Z,97638.63
2022-12-16T06:17:27.618Z,97646.69
2022-12-16T06:20:49.250Z,97651.53
2022-12-16T06:24:09.628Z,97660.09
2022-12-16T06:27:29.962Z,97663.06
2022-12-16T06:30:50.331Z,97673.25
2022-12-16T06:34:10.963Z,97667.31
2022-12-16T06:37:32.357Z,97677.59
2022-12-16T06:40:52.862Z,97681.59
2022-12-16T06:44:16.324Z,97691.22
2022-12-16T06:47:36.826Z,97697.91
2022-12-16T06:50:57.538Z,97697.38
2022-12-16T06:54:19.114Z,97705.44
2022-12-16T06:57:40.576Z,97709.75
2022-12-16T07:01:00.929Z,97718.03
2022-12-16T07:04:21.585Z,97722.31
2022-12-16T07:07:43.387Z,97730.88
2022-12-16T07:11:16.174Z,97737.06
2022-12-16T07:14:37.353Z,97749.94
2022-12-16T07:17:58.405Z,97754.22
2022-12-16T07:21:18.739Z,97757.41
2022-12-16T07:24:38.929Z,97764.38
2022-12-16T07:28:04.258Z,97754.75
2022-12-16T07:31:24.592Z,97764.94
2022-12-16T07:34:48.624Z,97766.28
2022-12-16T07:38:10.571Z,97767.63
2022-12-16T07:41:31.086Z,97781.00
2022-12-16T07:44:52.683Z,97773.97
2022-12-16T07:48:12.831Z,97786.31
2022-12-16T07:51:33.224Z,97794.94
2022-12-16T07:54:53.393Z,97806.75
2022-12-16T07:58:16.702Z,97813.06
2022-12-16T08:01:38.598Z,97808.75
2022-12-16T08:04:58.793Z,97816.19
2022-12-16T08:08:18.831Z,97816.84
2022-12-16T08:11:39.224Z,97821.38
2022-12-16T08:14:59.257Z,97835.47
2022-12-16T08:18:21.426Z,97833.03
2022-12-16T08:21:41.657Z,97840.41
2022-12-16T08:25:01.964Z,97840.00
2022-12-16T08:28:22.084Z,97844.75
2022-12-16T08:31:42.348Z,97858.94
2022-12-16T08:35:03.975Z,97865.34
2022-12-16T08:38:24.306Z,97869.47
2022-12-16T08:41:44.601Z,97869.72
2022-12-16T08:45:04.727Z,97881.38
2022-12-16T08:48:25.287Z,97888.19
2022-12-16T08:51:46.837Z,97887.50
2022-12-16T08:55:09.348Z,97898.72
2022-12-16T08:58:29.881Z,97896.81
2022-12-16T09:01:50.199Z,97904.00
2022-12-16T09:05:11.528Z,97918.09
2022-12-16T09:08:33.009Z,97924.69
2022-12-16T09:11:53.398Z,97919.78
2022-12-16T09:15:13.850Z,97927.91
2022-12-16T09:18:34.325Z,97923.09
2022-12-16T09:21:54.885Z,97926.09
2022-12-16T09:25:16.555Z,97934.06
2022-12-16T09:28:36.880Z,97931.44
2022-12-16T09:31:57.004Z,97941.78
2022-12-16T09:35:17.537Z,97937.69
2022-12-16T09:38:37.959Z,97951.06
2022-12-16T09:42:02.499Z,97952.28
2022-12-16T09:45:27.204Z,97951.94
2022-12-16T09:48:50.044Z,97951.09
2022-12-16T09:52:12.507Z,97955.59
2022-12-16T09:55:42.721Z,97957.91
2022-12-16T09:59:08.651Z,97967.94
2022-12-16T10:02:34.270Z,97957.09
2022-12-16T10:05:58.563Z,97970.03
2022-12-16T10:09:24.065Z,97970.59
2022-12-16T10:12:50.721Z,97980.78
2022-12-16T10:16:20.642Z,97970.50
2022-12-16T10:19:52.056Z,97971.09
2022-12-16T10:23:16.737Z,97975.66
2022-12-16T10:26:41.688Z,97977.50
2022-12-16T10:30:03.257Z,97976.06
2022-12-16T10:33:28.115Z,97977.13
2022-12-16T10:36:48.506Z,97966.94
2022-12-16T10:40:15.340Z,97973.59
2022-12-16T10:43:38.511Z,97964.22
2022-12-16T10:46:58.922Z,97978.34
2022-12-16T10:50:20.363Z,97986.06
2022-12-16T10:53:44.895Z,97977.09
2022-12-16T10:57:11.798Z,97986.19
2022-12-16T11:00:34.627Z,97988.69
2022-12-16T11:03:56.791Z,97995.16
2022-12-16T11:07:18.204Z,97996.28
2022-12-16T11:10:49.789Z,98001.31
2022-12-16T11:14:27.904Z,97985.19
2022-12-16T11:17:48.072Z,98006.34
2022-12-16T11:21:23.591Z,98000.16
2022-12-16T11:24:45.582Z,97999.50
2022-12-16T11:28:17.990Z,98007.34
2022-12-16T11:31:38.150Z,98002.13
2022-12-16T11:35:08.805Z,98010.97
2022-12-16T11:38:34.699Z,98013.50
2022-12-16T11:41:58.335Z,98011.09
2022-12-16T11:45:20.544Z,98014.19
2022-12-16T11:48:44.685Z,98014.44
2022-12-16T11:52:35.230Z,98016.69
2022-12-16T11:56:12.749Z,98021.28
2022-12-16T11:59:41.694Z,98027.00
2022-12-16T12:03:06.342Z,98023.78
2022-12-16T12:06:32.475Z,98023.72
2022-12-16T12:09:56.944Z,98023.69
2022-12-16T12:13:17.910Z,98031.38
2022-12-16T12:16:45.199Z,98032.03
2022-12-16T12:20:12.466Z,98042.91
2022-12-16T12:23:39.487Z,98048.28
2022-12-16T12:27:04.059Z,98059.88
2022-12-16T12:30:26.529Z,98058.50
2022-12-16T12:33:52.573Z,98069.88
2022-12-16T12:37:17.859Z,98069.31
2022-12-16T12:40:52.482Z,98065.00
2022-12-16T12:44:18.692Z,98071.66
2022-12-16T12:47:41.843Z,98077.31
2022-12-16T12:51:10.964Z,98085.19
2022-12-16T12:54:37.397Z,98079.34
2022-12-16T12:58:05.266Z,98093.13
2022-12-16T13:01:25.924Z,98080.31
2022-12-16T13:04:47.913Z,98086.19
2022-12-16T13:08:09.557Z,98082.59
2022-12-16T13:11:35.167Z,98091.63
2022-12-16T13:15:16.700Z,98094.75
2022-12-16T13:18:45.253Z,98092.75
2022-12-16T13:22:05.565Z,98097.53
2022-12-16T13:25:49.325Z,98102.91
2022-12-16T13:29:25.786Z,98113.06
2022-12-16T13:32:45.940Z,98120.31
2022-12-16T13:36:13.436Z,98118.66
2022-12-16T13:39:42.599Z,98121.88
2022-12-16T13:43:13.363Z,98127.31
2022-12-16T13:46:35.001Z,98131.03
2022-12-16T13:50:04.803Z,98139.88
2022-12-16T13:53:37.976Z,98145.41
2022-12-16T13:56:59.537Z,98145.75
2022-12-16T14:00:23.113Z,98145.56
2022-12-16T14:04:08.810Z,98155.28
2022-12-16T14:07:30.555Z,98160.09
2022-12-16T14:10:53.273Z,98178.31
2022-12-16T14:14:17.473Z,98180.50
2022-12-16T14:17:42.703Z,98192.09
2022-12-16T14:21:07.667Z,98192.91
2022-12-16T14:24:32.637Z,98200.19
2022-12-16T14:27:53.490Z,98209.03
2022-12-16T14:31:22.351Z,98212.22
2022-12-16T14:34:46.082Z,98213.66
2022-12-16T14:38:06.564Z,98227.25
2022-12-16T14:41:30.114Z,98224.78
2022-12-16T14:44:50.674Z,98237.13
2022-12-16T14:48:11.135Z,98242.25
2022-12-16T14:51:42.245Z,98242.28
2022-12-16T14:55:02.711Z,98242.00
2022-12-16T14:58:25.178Z,98246.06
2022-12-16T15:01:45.938Z,98251.94
2022-12-16T15:05:06.730Z,98254.66
2022-12-16T15:08:29.254Z,98261.91
2022-12-16T15:11:49.580Z,98263.53
2022-12-16T15:15:10.398Z,98265.63
2022-12-16T15:18:40.732Z,98269.63
2022-12-16T15:22:01.256Z,98270.34
2022-12-16T15:25:23.692Z,98276.69
2022-12-16T15:28:56.572Z,98277.84
2022-12-16T15:32:31.470Z,98285.97
2022-12-16T15:35:55.097Z,98292.94
2022-12-16T15:39:15.510Z,98291.06
2022-12-16T15:42:39.667Z,98306.81
2022-12-16T15:46:15.349Z,98315.38
2022-12-16T15:49:38.456Z,98322.34
2022-12-16T15:52:59.948Z,98316.75
2022-12-16T15:56:31.723Z,98328.03
2022-12-16T15:59:54.786Z,98322.53
2022-12-16T16:03:15.283Z,98335.38
2022-12-16T16:06:37.076Z,98338.97
2022-12-16T16:09:58.271Z,98352.91
2022-12-16T16:13:18.775Z,98354.66
2022-12-16T16:16:40.150Z,98366.91
2022-12-16T16:20:03.731Z,98363.72
2022-12-16T16:23:24.221Z,98376.00
2022-12-16T16:26:45.459Z,98376.22
2022-12-16T16:30:05.616Z,98374.88
2022-12-16T16:33:27.056Z,98376.19
2022-12-16T16:36:47.519Z,98377.75
2022-12-16T16:40:07.915Z,98385.53
2022-12-16T16:43:29.414Z,98387.34
2022-12-16T16:46:51.876Z,98389.00
2022-12-16T16:50:19.115Z,98386.84
2022-12-16T16:53:39.749Z,98383.66
2022-12-16T16:56:59.848Z,98384.81
2022-12-16T17:00:19.870Z,98392.09
2022-12-16T17:03:41.166Z,98400.59
2022-12-16T17:07:08.619Z,98407.75
2022-12-16T17:10:29.400Z,98410.31
2022-12-16T17:13:49.789Z,98416.22
2022-12-16T17:17:09.924Z,98425.44
2022-12-16T17:20:33.096Z,98430.81
2022-12-16T17:23:54.492Z,98430.22
2022-12-16T17:27:14.891Z,98440.16
2022-12-16T17:30:40.784Z,98454.97
2022-12-16T17:34:05.232Z,98464.31
2022-12-16T17:37:25.601Z,98462.75
2022-12-16T17:40:47.596Z,98460.38
2022-12-16T17:44:11.310Z,98468.44
2022-12-16T17:47:31.305Z,98476.56
2022-12-16T17:50:51.666Z,98484.09
2022-12-16T17:54:19.679Z,98480.81
2022-12-16T17:57:44.972Z,98483.41
2022-12-16T18:01:16.827Z,98484.34
2022-12-16T18:04:37.325Z,98490.94
2022-12-16T18:07:57.661Z,98489.59
2022-12-16T18:11:18.079Z,98487.66
2022-12-16T18:14:39.793Z,98487.59
2022-12-16T18:18:00.387Z,98500.00
2022-12-16T18:21:27.855Z,98500.84
2022-12-16T18:24:48.682Z,98507.28
2022-12-16T18:28:09.260Z,98504.94
2022-12-16T18:31:31.030Z,98510.34
2022-12-16T18:34:51.079Z,98524.25
2022-12-16T18:38:16.281Z,98524.47
2022-12-16T18:41:39.332Z,98527.19
2022-12-16T18:45:01.255Z,98539.88
2022-12-16T18:48:23.400Z,98543.59
2022-12-16T18:51:43.675Z,98548.34
2022-12-16T18:55:03.855Z,98543.59
2022-12-16T19:02:04.514Z,98550.94
2022-12-16T19:05:26.489Z,98558.53
2022-12-16T19:08:47.847Z,98550.81
2022-12-16T19:12:07.841Z,98558.53
2022-12-16T19:15:28.147Z,98574.06
2022-12-16T19:18:48.657Z,98579.50
2022-12-16T19:22:10.363Z,98582.28
2022-12-16T19:25:30.556Z,98587.47
2022-12-16T19:28:51.374Z,98584.91
2022-12-16T19:32:12.067Z,98590.66
2022-12-16T19:35:32.494Z,98593.81
2022-12-16T19:38:54.509Z,98597.16
2022-12-16T19:42:16.906Z,98605.50
2022-12-16T19:45:37.204Z,98606.56
2022-12-16T19:48:58.623Z,98614.97
2022-12-16T19:52:18.932Z,98625.69
2022-12-16T19:55:40.577Z,98624.59
2022-12-16T19:59:02.083Z,98633.75
2022-12-16T20:02:37.597Z,98643.25
2022-12-16T20:05:57.782Z,98647.84
2022-12-16T20:09:18.497Z,98650.25
2022-12-16T20:12:40.439Z,98657.69
2022-12-16T20:16:00.412Z,98654.38
2022-12-16T20:19:21.498Z,98662.75
2022-12-16T20:22:42.175Z,98662.25
2022-12-16T20:26:02.913Z,98671.38
2022-12-16T20:29:24.609Z,98669.75
2022-12-16T20:32:44.721Z,98677.78
2022-12-16T20:36:14.353Z,98686.75
2022-12-16T20:39:34.357Z,98678.63
2022-12-16T20:42:56.311Z,98678.97
2022-12-16T20:46:17.979Z,98680.66
2022-12-16T20:49:38.089Z,98684.81
2022-12-16T20:52:58.555Z,98680.34
2022-12-16T20:56:19.951Z,98688.16
2022-12-16T20:59:40.524Z,98689.22
2022-12-16T21:03:01.972Z,98690.41
2022-12-16T21:06:22.474Z,98699.94
2022-12-16T21:09:43.112Z,98701.28
2022-12-16T21:13:11.849Z,98713.09
2022-12-16T21:16:32.104Z,98721.78
2022-12-16T21:19:53.728Z,98730.88
2022-12-16T21:23:18.175Z,98743.06
2022-12-16T21:26:38.447Z,98742.66
2022-12-16T21:29:59.044Z,98740.03
2022-12-16T21:33:19.340Z,98741.09
2022-12-16T21:36:41.368Z,98741.44
2022-12-16T21:40:01.479Z,98745.47
2022-12-16T21:43:21.874Z,98751.03
2022-12-16T21:46:44.288Z,98749.78
2022-12-16T21:50:04.895Z,98755.16
2022-12-16T21:53:26.359Z,98767.91
2022-12-16T21:56:46.541Z,98775.75
2022-12-16T22:00:07.201Z,98780.19
2022-12-16T22:03:27.740Z,98781.50
2022-12-16T22:10:30.166Z,98799.81
2022-12-16T22:13:50.540Z,98810.44
2022-12-16T22:17:10.605Z,98812.19
2022-12-16T22:20:31.088Z,98826.50
2022-12-16T22:23:51.371Z,98824.63
2022-12-16T22:27:13.630Z,98825.44
2022-12-16T22:30:34.091Z,98832.53
2022-12-16T22:33:54.289Z,98840.66
2022-12-16T22:37:16.767Z,98837.16
2022-12-16T22:40:37.268Z,98845.06
2022-12-16T22:43:58.886Z,98844.88
2022-12-16T22:47:18.958Z,98842.31
2022-12-16T22:50:39.243Z,98847.53
2022-12-16T22:53:59.446Z,98855.03
2022-12-16T22:57:19.764Z,98856.69
2022-12-16T23:00:41.217Z,98862.41
2022-12-16T23:04:01.566Z,98869.34
2022-12-16T23:07:27.457Z,98868.97
2022-12-16T23:10:47.759Z,98872.72
2022-12-16T23:14:08.173Z,98875.84
2022-12-16T23:17:29.989Z,98872.44
2022-12-16T23:20:50.143Z,98882.22
2022-12-16T23:24:22.468Z,98879.56
2022-12-16T23:27:42.692Z,98880.94
2022-12-16T23:31:03.310Z,98878.59
2022-12-16T23:32:31.434Z,98793.59
2022-12-16T23:34:25.028Z,98873.78
2022-12-16T23:37:45.489Z,98878.03
2022-12-16T23:41:05.401Z,98874.03
2022-12-16T23:44:25.776Z,98878.63
2022-12-16T23:47:46.155Z,98875.47
2022-12-16T23:51:07.956Z,98881.63
2022-12-16T23:54:28.436Z,98878.34
2022-12-16T23:57:49.014Z,98882.59
